createdAt,value
2017-07-16T00:02:21.174Z,19.30
2017-07-16T00:04:49.639Z,19.30
2017-07-16T00:07:17.898Z,19.20
2017-07-16T00:09:46.144Z,19.10
2017-07-16T00:12:14.376Z,19.20
2017-07-16T00:14:42.678Z,19.50
2017-07-16T00:17:10.933Z,19.70
2017-07-16T00:19:39.192Z,19.90
2017-07-16T00:22:07.501Z,19.70
2017-07-16T00:24:35.785Z,19.90
2017-07-16T00:27:04.007Z,20.20
2017-07-16T00:29:32.297Z,20.40
2017-07-16T00:32:00.540Z,20.30
2017-07-16T00:34:29.011Z,20.00
2017-07-16T00:36:57.273Z,20.10
2017-07-16T00:39:25.523Z,20.20
2017-07-16T00:41:54.098Z,20.00
2017-07-16T00:44:22.741Z,20.10
2017-07-16T00:46:51.041Z,20.30
2017-07-16T00:49:19.294Z,20.50
2017-07-16T00:51:47.577Z,20.30
2017-07-16T00:54:16.218Z,20.40
2017-07-16T00:56:44.460Z,20.50
2017-07-16T00:59:12.990Z,20.30
2017-07-16T01:01:41.232Z,19.80
2017-07-16T01:04:09.475Z,19.50
2017-07-16T01:06:37.807Z,19.40
2017-07-16T01:09:06.041Z,19.20
2017-07-16T01:11:34.360Z,19.50
2017-07-16T01:14:02.631Z,19.60
2017-07-16T01:16:30.876Z,19.30
2017-07-16T01:18:59.121Z,19.00
2017-07-16T01:21:27.799Z,18.60
2017-07-16T01:23:56.054Z,18.60
2017-07-16T01:26:24.290Z,18.30
2017-07-16T01:28:52.563Z,18.40
2017-07-16T01:31:20.797Z,18.70
2017-07-16T01:33:49.043Z,19.10
2017-07-16T01:36:17.314Z,19.60
2017-07-16T01:38:45.562Z,20.10
2017-07-16T01:41:13.813Z,20.50
2017-07-16T01:43:42.563Z,21.20
2017-07-16T01:46:10.792Z,21.20
2017-07-16T01:48:39.025Z,21.50
2017-07-16T01:51:07.293Z,21.80
2017-07-16T01:53:35.532Z,22.00
2017-07-16T01:56:03.787Z,22.10
2017-07-16T01:58:32.177Z,22.20
2017-07-16T02:01:00.414Z,22.30
2017-07-16T02:03:28.649Z,22.40
2017-07-16T02:05:57.016Z,22.20
2017-07-16T02:08:25.245Z,22.00
2017-07-16T02:10:53.482Z,21.90
2017-07-16T02:13:21.735Z,22.00
2017-07-16T02:15:49.963Z,22.00
2017-07-16T02:18:18.209Z,21.60
2017-07-16T02:20:46.585Z,21.10
2017-07-16T02:23:14.829Z,20.50
2017-07-16T02:25:43.069Z,20.10
2017-07-16T02:28:11.430Z,19.80
2017-07-16T02:30:39.654Z,19.90
2017-07-16T02:33:07.961Z,20.00
2017-07-16T02:35:36.231Z,20.20
2017-07-16T02:38:04.473Z,20.50
2017-07-16T02:40:33.135Z,20.00
2017-07-16T02:43:01.399Z,20.00
2017-07-16T02:45:29.629Z,20.00
2017-07-16T02:47:59.888Z,19.80
2017-07-16T02:50:28.148Z,19.60
2017-07-16T02:52:56.416Z,19.20
2017-07-16T02:55:24.658Z,19.20
2017-07-16T02:57:54.116Z,19.10
2017-07-16T03:00:22.509Z,19.10
2017-07-16T03:02:50.750Z,18.90
2017-07-16T03:05:19.031Z,18.90
2017-07-16T03:07:47.267Z,19.20
2017-07-16T03:10:15.512Z,19.70
2017-07-16T03:12:43.800Z,20.00
2017-07-16T03:15:12.034Z,20.20
2017-07-16T03:17:40.272Z,20.50
2017-07-16T03:20:08.582Z,20.80
2017-07-16T03:22:36.812Z,21.00
2017-07-16T03:25:17.436Z,21.20
2017-07-16T03:27:45.673Z,21.20
2017-07-16T03:30:13.916Z,21.20
2017-07-16T03:32:42.493Z,21.30
2017-07-16T03:35:10.742Z,21.10
2017-07-16T03:37:38.985Z,20.90
2017-07-16T03:40:07.290Z,20.80
2017-07-16T03:42:35.532Z,20.60
2017-07-16T03:45:03.800Z,20.20
2017-07-16T03:47:32.183Z,19.60
2017-07-16T03:50:00.447Z,19.30
2017-07-16T03:52:28.695Z,18.90
2017-07-16T03:54:56.970Z,18.70
2017-07-16T03:57:25.211Z,18.50
2017-07-16T03:59:53.463Z,18.30
2017-07-16T04:02:21.741Z,18.40
2017-07-16T04:04:49.999Z,18.50
2017-07-16T04:07:18.238Z,18.30
2017-07-16T04:09:46.500Z,18.30
2017-07-16T04:12:14.753Z,18.30
2017-07-16T04:14:43.002Z,18.30
2017-07-16T04:17:11.670Z,18.60
2017-07-16T04:19:39.926Z,18.60
2017-07-16T04:22:08.423Z,18.70
2017-07-16T04:24:36.720Z,18.80
2017-07-16T04:27:05.000Z,18.90
2017-07-16T04:29:33.253Z,18.90
2017-07-16T04:32:01.618Z,18.80
2017-07-16T04:34:29.873Z,18.90
2017-07-16T04:36:58.381Z,18.90
2017-07-16T04:39:26.964Z,18.80
2017-07-16T04:41:55.205Z,18.80
2017-07-16T04:44:23.450Z,18.70
2017-07-16T04:46:52.137Z,19.00
2017-07-16T04:49:20.766Z,19.20
2017-07-16T04:51:49.317Z,19.20
2017-07-16T04:54:17.598Z,19.10
2017-07-16T04:56:45.840Z,19.10
2017-07-16T04:59:14.486Z,19.00
2017-07-16T05:01:42.791Z,19.00
2017-07-16T05:04:11.448Z,18.90
2017-07-16T05:06:39.948Z,18.90
2017-07-16T05:09:08.243Z,19.10
2017-07-16T05:11:36.877Z,19.30
2017-07-16T05:14:05.128Z,19.30
2017-07-16T05:16:33.399Z,19.60
2017-07-16T05:19:01.653Z,20.00
2017-07-16T05:21:29.898Z,20.30
2017-07-16T05:23:58.177Z,20.70
2017-07-16T05:26:26.413Z,21.00
2017-07-16T05:28:54.658Z,21.30
2017-07-16T05:31:23.342Z,21.80
2017-07-16T05:33:51.596Z,21.80
2017-07-16T05:36:20.287Z,21.80
2017-07-16T05:38:48.924Z,21.90
2017-07-16T05:41:17.167Z,22.00
2017-07-16T05:43:45.839Z,22.00
2017-07-16T05:46:14.109Z,22.00
2017-07-16T05:48:42.349Z,21.80
2017-07-16T05:51:10.598Z,21.90
2017-07-16T05:53:38.860Z,22.10
2017-07-16T05:56:07.119Z,22.00
2017-07-16T05:58:35.390Z,22.10
2017-07-16T06:01:03.975Z,22.10
2017-07-16T06:03:32.662Z,22.30
2017-07-16T06:06:00.883Z,22.30
2017-07-16T06:08:29.205Z,22.10
2017-07-16T06:10:57.479Z,22.10
2017-07-16T06:13:26.105Z,22.30
2017-07-16T06:15:54.370Z,22.50
2017-07-16T06:18:22.632Z,22.60
2017-07-16T06:20:50.877Z,22.50
2017-07-16T06:23:19.137Z,22.50
2017-07-16T06:25:47.374Z,22.70
2017-07-16T06:28:16.019Z,22.80
2017-07-16T06:30:44.359Z,22.80
2017-07-16T06:33:12.593Z,22.70
2017-07-16T06:35:40.902Z,22.90
2017-07-16T06:38:09.184Z,23.10
2017-07-16T06:40:37.482Z,23.00
2017-07-16T06:43:05.730Z,23.20
2017-07-16T06:45:34.004Z,23.40
2017-07-16T06:48:02.286Z,23.30
2017-07-16T06:50:30.549Z,23.00
2017-07-16T06:52:58.924Z,23.20
2017-07-16T06:55:27.184Z,23.30
2017-07-16T06:57:55.819Z,23.70
2017-07-16T07:00:24.193Z,23.70
2017-07-16T07:02:52.450Z,23.80
2017-07-16T07:05:20.724Z,24.00
2017-07-16T07:07:49.009Z,24.10
2017-07-16T07:10:17.260Z,24.10
2017-07-16T07:12:45.508Z,24.10
2017-07-16T07:15:13.810Z,23.90
2017-07-16T07:17:42.051Z,22.60
2017-07-16T07:20:10.284Z,21.90
2017-07-16T07:22:38.573Z,21.70
2017-07-16T07:25:06.817Z,21.80
2017-07-16T07:27:35.958Z,21.00
2017-07-16T07:30:04.243Z,21.00
2017-07-16T07:32:32.480Z,20.90
2017-07-16T07:35:00.772Z,20.80
2017-07-16T07:37:29.054Z,21.10
2017-07-16T07:39:57.315Z,21.60
2017-07-16T07:42:25.561Z,22.10
2017-07-16T07:44:54.129Z,22.70
2017-07-16T07:47:22.385Z,23.30
2017-07-16T07:49:50.641Z,23.70
2017-07-16T07:52:19.011Z,24.10
2017-07-16T07:54:47.424Z,24.50
2017-07-16T07:57:15.650Z,24.70
2017-07-16T07:59:43.949Z,24.90
2017-07-16T08:02:12.219Z,25.10
2017-07-16T08:04:41.077Z,25.30
2017-07-16T08:07:09.732Z,25.70
2017-07-16T08:09:38.328Z,25.80
2017-07-16T08:12:06.561Z,26.00
2017-07-16T08:14:34.829Z,26.30
2017-07-16T08:17:03.062Z,26.40
2017-07-16T08:19:31.318Z,26.60
2017-07-16T08:21:59.610Z,27.10
2017-07-16T08:24:28.269Z,27.90
2017-07-16T08:26:56.559Z,27.90
2017-07-16T08:29:24.934Z,28.50
2017-07-16T08:31:53.179Z,28.90
2017-07-16T08:34:21.437Z,29.20
2017-07-16T08:36:49.795Z,29.30
2017-07-16T08:39:18.026Z,29.20
2017-07-16T08:41:46.305Z,29.30
2017-07-16T08:44:14.578Z,29.20
2017-07-16T08:46:42.808Z,29.20
2017-07-16T08:49:11.066Z,29.00
2017-07-16T08:51:39.337Z,28.60
2017-07-16T08:54:07.588Z,28.60
2017-07-16T08:56:35.904Z,28.70
2017-07-16T08:59:04.169Z,29.00
2017-07-16T09:01:32.904Z,29.50
2017-07-16T09:04:01.158Z,29.50
2017-07-16T09:06:29.441Z,29.80
2017-07-16T09:08:57.677Z,29.80
2017-07-16T09:11:26.548Z,29.40
2017-07-16T09:13:54.817Z,29.40
2017-07-16T09:16:23.098Z,29.30
2017-07-16T09:18:51.409Z,29.50
2017-07-16T09:21:19.726Z,29.60
2017-07-16T09:23:48.104Z,29.30
2017-07-16T09:26:16.846Z,28.90
2017-07-16T09:28:45.510Z,28.90
2017-07-16T09:31:13.747Z,28.80
2017-07-16T09:33:41.985Z,28.70
2017-07-16T09:36:10.279Z,28.50
2017-07-16T09:38:38.513Z,28.60
2017-07-16T09:41:06.763Z,28.70
2017-07-16T09:43:35.252Z,28.80
2017-07-16T09:46:03.468Z,28.90
2017-07-16T09:48:31.701Z,28.60
2017-07-16T09:50:59.972Z,28.10
2017-07-16T09:53:28.212Z,27.60
2017-07-16T09:55:56.481Z,27.40
2017-07-16T09:58:24.779Z,27.50
2017-07-16T10:00:53.027Z,27.50
2017-07-16T10:03:21.359Z,27.80
2017-07-16T10:05:50.559Z,27.60
2017-07-16T10:08:18.830Z,27.70
2017-07-16T10:10:47.087Z,27.80
2017-07-16T10:13:15.486Z,27.80
2017-07-16T10:15:43.713Z,27.70
2017-07-16T10:18:11.977Z,27.70
2017-07-16T10:20:40.295Z,27.40
2017-07-16T10:23:08.806Z,27.30
2017-07-16T10:25:37.041Z,27.30
2017-07-16T10:28:05.318Z,27.40
2017-07-16T10:30:33.559Z,27.30
2017-07-16T10:33:01.839Z,27.20
2017-07-16T10:35:30.112Z,27.30
2017-07-16T10:37:58.363Z,27.40
2017-07-16T10:40:26.581Z,27.50
2017-07-16T10:42:54.896Z,27.50
2017-07-16T10:45:23.142Z,27.60
2017-07-16T10:47:51.560Z,27.90
2017-07-16T10:50:19.913Z,28.20
2017-07-16T10:52:48.195Z,28.40
2017-07-16T10:55:16.425Z,27.90
2017-07-16T10:57:44.808Z,27.90
2017-07-16T11:00:13.051Z,27.90
2017-07-16T11:02:41.302Z,28.00
2017-07-16T11:05:09.582Z,28.20
2017-07-16T11:07:37.849Z,28.40
2017-07-16T11:10:06.085Z,28.20
2017-07-16T11:12:34.413Z,28.20
2017-07-16T11:15:02.670Z,28.40
2017-07-16T11:17:31.006Z,28.60
2017-07-16T11:19:59.677Z,28.80
2017-07-16T11:22:27.928Z,28.80
2017-07-16T11:24:56.212Z,28.80
2017-07-16T11:27:24.488Z,28.70
2017-07-16T11:29:52.729Z,28.40
2017-07-16T11:32:21.300Z,28.10
2017-07-16T11:34:49.571Z,28.20
2017-07-16T11:37:18.109Z,28.30
2017-07-16T11:39:46.357Z,28.20
2017-07-16T11:42:14.864Z,28.10
2017-07-16T11:44:43.653Z,27.50
2017-07-16T11:47:11.901Z,27.50
2017-07-16T11:49:40.179Z,27.40
2017-07-16T11:52:08.406Z,27.10
2017-07-16T11:54:37.380Z,27.30
2017-07-16T11:57:05.666Z,27.40
2017-07-16T11:59:33.935Z,27.40
2017-07-16T12:02:02.602Z,27.60
2017-07-16T12:04:31.519Z,27.60
2017-07-16T12:06:59.781Z,27.70
2017-07-16T12:09:28.024Z,27.70
2017-07-16T12:11:56.344Z,27.70
2017-07-16T12:14:24.767Z,27.60
2017-07-16T12:16:53.043Z,27.60
2017-07-16T12:19:21.337Z,27.60
2017-07-16T12:21:49.598Z,27.70
2017-07-16T12:24:17.853Z,27.70
2017-07-16T12:26:46.120Z,27.80
2017-07-16T12:29:14.765Z,27.90
2017-07-16T12:31:43.096Z,27.90
2017-07-16T12:34:11.369Z,27.70
2017-07-16T12:36:39.643Z,27.50
2017-07-16T12:39:07.923Z,27.40
2017-07-16T12:41:36.236Z,27.30
2017-07-16T12:44:04.494Z,27.00
2017-07-16T12:46:32.734Z,26.90
2017-07-16T12:49:01.061Z,26.70
2017-07-16T12:51:29.297Z,26.60
2017-07-16T12:53:57.556Z,26.70
2017-07-16T12:56:26.218Z,26.60
2017-07-16T12:58:54.468Z,26.60
2017-07-16T13:01:22.744Z,26.50
2017-07-16T13:03:51.028Z,26.60
2017-07-16T13:06:19.291Z,26.30
2017-07-16T13:08:47.559Z,26.20
2017-07-16T13:11:16.075Z,26.30
2017-07-16T13:13:44.363Z,26.50
2017-07-16T13:16:12.671Z,26.50
2017-07-16T13:18:40.982Z,26.40
2017-07-16T13:21:09.245Z,26.00
2017-07-16T13:23:37.521Z,25.50
2017-07-16T13:26:05.816Z,25.40
2017-07-16T13:28:34.084Z,25.40
2017-07-16T13:31:02.334Z,25.30
2017-07-16T13:33:30.626Z,25.20
2017-07-16T13:35:58.852Z,25.20
2017-07-16T13:38:27.093Z,24.30
2017-07-16T13:40:55.409Z,22.50
2017-07-16T13:43:23.645Z,22.10
2017-07-16T13:45:52.257Z,22.10
2017-07-16T13:48:21.121Z,22.10
2017-07-16T13:50:49.480Z,22.10
2017-07-16T13:53:17.727Z,22.00
2017-07-16T13:55:46.058Z,22.00
2017-07-16T13:58:14.293Z,22.30
2017-07-16T14:00:49.235Z,22.30
2017-07-16T14:03:19.019Z,22.40
2017-07-16T14:05:47.485Z,22.60
2017-07-16T14:08:15.792Z,22.90
2017-07-16T14:10:44.735Z,22.90
2017-07-16T14:13:12.990Z,22.80
2017-07-16T14:15:41.389Z,23.00
2017-07-16T14:18:10.231Z,22.90
2017-07-16T14:20:43.675Z,22.50
2017-07-16T14:23:12.050Z,22.30
2017-07-16T14:25:40.745Z,22.40
2017-07-16T14:28:09.016Z,22.40
2017-07-16T14:30:37.293Z,22.40
2017-07-16T14:33:05.536Z,22.40
2017-07-16T14:35:33.803Z,22.50
2017-07-16T14:38:02.068Z,22.70
2017-07-16T14:40:30.501Z,22.90
2017-07-16T14:42:58.763Z,22.90
2017-07-16T14:45:27.119Z,23.00
2017-07-16T14:47:58.588Z,23.10
2017-07-16T14:50:27.465Z,23.10
2017-07-16T14:52:55.710Z,23.10
2017-07-16T14:55:23.951Z,23.20
2017-07-16T14:57:52.618Z,23.20
2017-07-16T15:00:21.451Z,22.50
2017-07-16T15:02:50.059Z,22.50
2017-07-16T15:05:18.794Z,22.50
2017-07-16T15:07:47.222Z,22.50
2017-07-16T15:10:15.537Z,22.30
2017-07-16T15:12:44.061Z,22.00
2017-07-16T15:15:12.811Z,22.10
2017-07-16T15:17:43.502Z,22.10
2017-07-16T15:20:22.506Z,22.30
2017-07-16T15:22:52.290Z,22.30
2017-07-16T15:25:20.560Z,22.40
2017-07-16T15:27:48.872Z,22.30
2017-07-16T15:30:17.506Z,22.30
2017-07-16T15:32:45.882Z,22.30
2017-07-16T15:35:14.281Z,22.30
2017-07-16T15:37:42.543Z,22.60
2017-07-16T15:40:10.820Z,22.90
2017-07-16T15:42:39.059Z,22.90
2017-07-16T15:45:07.602Z,22.50
2017-07-16T15:47:35.869Z,22.30
2017-07-16T15:50:04.125Z,22.50
2017-07-16T15:52:32.633Z,22.70
2017-07-16T15:55:01.512Z,22.70
2017-07-16T15:57:29.749Z,22.70
2017-07-16T15:59:57.997Z,22.00
2017-07-16T16:02:26.343Z,21.30
2017-07-16T16:04:54.573Z,21.20
2017-07-16T16:07:22.810Z,20.90
2017-07-16T16:09:51.105Z,20.60
2017-07-16T16:12:19.456Z,20.40
2017-07-16T16:14:47.711Z,20.50
2017-07-16T16:17:16.086Z,20.50
2017-07-16T16:19:44.446Z,20.60
2017-07-16T16:22:12.694Z,20.60
2017-07-16T16:24:41.041Z,20.80
2017-07-16T16:27:09.355Z,20.80
2017-07-16T16:29:37.741Z,20.80
2017-07-16T16:32:06.039Z,21.00
2017-07-16T16:34:34.376Z,21.00
2017-07-16T16:37:02.636Z,20.80
2017-07-16T16:39:30.928Z,20.40
2017-07-16T16:41:59.209Z,20.30
2017-07-16T16:44:27.481Z,20.30
2017-07-16T16:46:55.765Z,20.50
2017-07-16T16:49:24.013Z,20.70
2017-07-16T16:51:52.442Z,20.70
2017-07-16T16:54:20.715Z,20.70
2017-07-16T16:56:48.944Z,20.80
2017-07-16T16:59:17.831Z,20.80
2017-07-16T17:01:46.195Z,20.80
2017-07-16T17:04:14.471Z,20.80
2017-07-16T17:06:42.739Z,21.10
2017-07-16T17:09:11.036Z,21.30
2017-07-16T17:11:40.061Z,21.60
2017-07-16T17:14:08.402Z,21.70
2017-07-16T17:16:42.340Z,21.90
2017-07-16T17:19:18.131Z,22.10
2017-07-16T17:21:47.766Z,22.30
2017-07-16T17:24:16.010Z,22.50
2017-07-16T17:26:44.401Z,22.60
2017-07-16T17:29:12.845Z,22.80
2017-07-16T17:31:41.481Z,23.00
2017-07-16T17:34:09.757Z,23.00
2017-07-16T17:36:38.045Z,23.10
2017-07-16T17:39:06.295Z,23.00
2017-07-16T17:41:34.551Z,23.00
2017-07-16T17:44:02.866Z,23.00
2017-07-16T17:46:31.108Z,23.00
2017-07-16T17:48:59.357Z,23.00
2017-07-16T17:51:27.647Z,23.00
2017-07-16T17:53:55.890Z,23.00
2017-07-16T17:56:24.521Z,23.00
2017-07-16T17:58:53.034Z,23.00
2017-07-16T18:01:22.085Z,23.00
2017-07-16T18:03:50.347Z,22.90
2017-07-16T18:06:18.629Z,22.80
2017-07-16T18:08:46.886Z,22.70
2017-07-16T18:11:15.132Z,22.60
2017-07-16T18:13:43.796Z,22.20
2017-07-16T18:16:12.292Z,21.90
2017-07-16T18:18:40.831Z,21.50
2017-07-16T18:21:09.241Z,21.10
2017-07-16T18:23:37.484Z,21.00
2017-07-16T18:26:06.002Z,20.60
2017-07-16T18:28:34.287Z,19.80
2017-07-16T18:31:02.545Z,20.00
2017-07-16T18:33:30.801Z,20.30
2017-07-16T18:35:59.075Z,20.50
2017-07-16T18:38:27.370Z,20.70
2017-07-16T18:40:55.605Z,20.90
2017-07-16T18:43:23.894Z,21.10
2017-07-16T18:45:52.253Z,21.20
2017-07-16T18:48:20.497Z,21.20
2017-07-16T18:50:48.951Z,21.40
2017-07-16T18:53:17.208Z,21.40
2017-07-16T18:55:45.453Z,21.40
2017-07-16T18:58:13.856Z,21.30
2017-07-16T19:00:42.917Z,21.50
2017-07-16T19:03:11.166Z,21.50
2017-07-16T19:05:39.449Z,21.70
2017-07-16T19:08:07.693Z,21.70
2017-07-16T19:10:36.218Z,21.80
2017-07-16T19:13:04.491Z,21.70
2017-07-16T19:15:32.738Z,21.70
2017-07-16T19:18:01.021Z,21.60
2017-07-16T19:20:29.323Z,21.60
2017-07-16T19:22:57.562Z,21.60
2017-07-16T19:25:25.818Z,21.70
2017-07-16T19:27:54.094Z,21.80
2017-07-16T19:30:22.351Z,21.90
2017-07-16T19:32:51.249Z,22.00
2017-07-16T19:35:19.958Z,22.00
2017-07-16T19:37:48.228Z,22.00
2017-07-16T19:40:16.489Z,22.20
2017-07-16T19:42:45.771Z,22.30
2017-07-16T19:45:14.020Z,22.30
2017-07-16T19:47:42.288Z,22.20
2017-07-16T19:50:10.590Z,22.30
2017-07-16T19:52:38.824Z,22.20
2017-07-16T19:55:07.075Z,22.20
2017-07-16T19:57:35.369Z,22.10
2017-07-16T20:00:03.618Z,22.10
2017-07-16T20:02:31.886Z,22.00
2017-07-16T20:05:00.227Z,21.90
2017-07-16T20:07:28.494Z,21.70
2017-07-16T20:09:56.824Z,21.70
2017-07-16T20:12:25.503Z,21.80
2017-07-16T20:14:54.162Z,21.90
2017-07-16T20:17:22.395Z,21.90
2017-07-16T20:19:50.689Z,22.00
2017-07-16T20:22:18.997Z,22.00
2017-07-16T20:24:47.298Z,22.10
2017-07-16T20:27:15.687Z,22.20
2017-07-16T20:29:43.985Z,22.00
2017-07-16T20:32:12.230Z,22.00
2017-07-16T20:34:40.951Z,22.00
2017-07-16T20:37:09.214Z,22.00
2017-07-16T20:39:37.518Z,21.90
2017-07-16T20:42:05.982Z,21.90
2017-07-16T20:44:34.240Z,22.00
2017-07-16T20:47:02.509Z,21.90
2017-07-16T20:49:30.987Z,21.90
2017-07-16T20:51:59.294Z,21.90
2017-07-16T20:54:27.542Z,21.90
2017-07-16T20:56:55.810Z,22.00
2017-07-16T20:59:24.109Z,22.10
2017-07-16T21:01:52.356Z,22.00
2017-07-16T21:04:21.018Z,21.90
2017-07-16T21:06:49.296Z,21.90
2017-07-16T21:09:17.703Z,21.70
2017-07-16T21:11:46.914Z,21.40
2017-07-16T21:14:15.154Z,21.20
2017-07-16T21:16:43.525Z,21.00
2017-07-16T21:19:12.321Z,20.90
2017-07-16T21:21:43.102Z,20.90
2017-07-16T21:24:12.797Z,20.90
2017-07-16T21:26:41.108Z,20.90
2017-07-16T21:29:09.378Z,20.90
2017-07-16T21:31:37.680Z,20.90
2017-07-16T21:34:05.929Z,21.00
2017-07-16T21:36:34.230Z,21.10
2017-07-16T21:39:02.532Z,21.20
2017-07-16T21:41:31.176Z,21.10
2017-07-16T21:43:59.565Z,21.10
2017-07-16T21:46:27.833Z,21.20
2017-07-16T21:48:56.076Z,21.20
2017-07-16T21:51:24.321Z,21.30
2017-07-16T21:53:52.584Z,21.40
2017-07-16T21:56:20.822Z,21.50
2017-07-16T21:58:49.077Z,21.60
2017-07-16T22:01:17.680Z,21.70
2017-07-16T22:03:46.472Z,22.00
2017-07-16T22:06:15.161Z,22.00
2017-07-16T22:08:43.445Z,22.00
2017-07-16T22:11:11.913Z,22.00
2017-07-16T22:13:40.169Z,22.00
2017-07-16T22:16:08.444Z,21.90
2017-07-16T22:18:36.698Z,21.70
2017-07-16T22:21:05.355Z,21.40
2017-07-16T22:23:33.850Z,21.40
2017-07-16T22:26:02.098Z,21.30
2017-07-16T22:28:30.346Z,21.30
2017-07-16T22:30:58.730Z,21.20
2017-07-16T22:33:26.976Z,21.20
2017-07-16T22:35:55.217Z,21.10
2017-07-16T22:38:23.513Z,21.10
2017-07-16T22:40:52.178Z,21.10
2017-07-16T22:43:20.549Z,21.10
2017-07-16T22:45:48.899Z,21.00
2017-07-16T22:48:17.142Z,21.10
2017-07-16T22:50:45.770Z,21.20
2017-07-16T22:53:14.044Z,21.20
2017-07-16T22:55:42.284Z,21.40
2017-07-16T22:58:10.528Z,21.50
2017-07-16T23:00:38.820Z,21.60
2017-07-16T23:03:07.449Z,21.60
2017-07-16T23:05:35.686Z,21.60
2017-07-16T23:08:04.334Z,21.70
2017-07-16T23:10:32.608Z,21.70
2017-07-16T23:13:00.855Z,21.70
2017-07-16T23:15:29.135Z,21.60
2017-07-16T23:17:57.365Z,21.50
2017-07-16T23:20:26.004Z,21.70
2017-07-16T23:22:54.612Z,21.70
2017-07-16T23:25:22.858Z,21.60
2017-07-16T23:27:51.089Z,21.60
2017-07-16T23:30:19.380Z,21.60
2017-07-16T23:32:47.627Z,21.50
2017-07-16T23:35:15.877Z,21.50
2017-07-16T23:37:45.232Z,21.30
2017-07-16T23:40:13.544Z,21.40
2017-07-16T23:42:41.799Z,21.50
2017-07-16T23:45:10.331Z,21.50
2017-07-16T23:47:38.574Z,21.50
2017-07-16T23:50:06.818Z,21.60
2017-07-16T23:52:35.114Z,21.70
2017-07-16T23:55:03.367Z,21.80
2017-07-16T23:57:31.628Z,21.90
